Time;durP1;ratioP1;P1;durP2;ratioP2;P2;SDS_P1;SDS_P2;PMS_P1;PMS_P2;Temp;Humidity;BMP_temperature;BMP_pressure;BME280_temperature;BME280_humidity;BME280_pressure;Samples;Min_cycle;Max_cycle;Signal;HPM_P1;HPM_P2
2022/07/25 00:00:49;;;;;;;20.50;4.20;;;40.40;42.40;;;;;;5011571;28;20437;-65
2022/07/25 00:03:15;;;;;;;25.73;4.10;;;40.40;42.30;;;;;;5021843;28;20122;-63
2022/07/25 00:05:42;;;;;;;24.48;4.03;;;40.40;42.20;;;;;;5013473;28;20086;-63
2022/07/25 00:08:08;;;;;;;15.15;3.95;;;40.40;41.40;;;;;;5014472;28;20215;-63
2022/07/25 00:10:34;;;;;;;15.98;3.63;;;40.40;41.30;;;;;;5012295;28;20232;-63
2022/07/25 00:13:01;;;;;;;19.70;4.22;;;40.40;41.70;;;;;;4996849;28;20067;-62
2022/07/25 00:15:27;;;;;;;23.50;4.57;;;40.40;40.90;;;;;;5013262;28;20069;-64
2022/07/25 00:17:54;;;;;;;19.52;4.32;;;40.30;40.60;;;;;;5016327;28;20072;-64
2022/07/25 00:20:20;;;;;;;23.05;4.88;;;40.30;39.70;;;;;;5014285;28;20552;-62
2022/07/25 00:22:46;;;;;;;13.65;3.80;;;40.10;39.20;;;;;;5021828;28;20164;-62
2022/07/25 00:25:13;;;;;;;13.57;3.67;;;40.00;38.80;;;;;;5009776;28;20808;-65
2022/07/25 00:27:39;;;;;;;17.90;4.25;;;39.80;38.60;;;;;;5011973;28;20118;-65
2022/07/25 00:30:06;;;;;;;19.67;3.70;;;39.70;38.20;;;;;;5013801;28;20113;-63
2022/07/25 00:32:33;;;;;;;16.08;3.33;;;39.60;38.10;;;;;;4997268;28;20201;-64
2022/07/25 00:34:59;;;;;;;14.25;3.55;;;39.50;38.10;;;;;;4997342;28;20539;-63
2022/07/25 00:37:25;;;;;;;23.85;2.97;;;39.60;37.40;;;;;;5014131;28;20081;-66
2022/07/25 00:39:52;;;;;;;26.38;3.70;;;39.60;36.20;;;;;;4992505;28;20187;-66
2022/07/25 00:42:18;;;;;;;21.73;4.00;;;39.60;36.40;;;;;;5013348;28;20085;-63
2022/07/25 00:44:44;;;;;;;15.40;3.15;;;39.60;35.70;;;;;;5014383;28;20492;-64
2022/07/25 00:47:11;;;;;;;14.07;3.03;;;39.50;35.00;;;;;;5014127;28;20119;-63
2022/07/25 00:49:37;;;;;;;15.80;2.88;;;39.40;35.00;;;;;;5010711;28;20068;-63
2022/07/25 00:52:04;;;;;;;13.40;2.72;;;39.40;35.40;;;;;;5010851;28;20074;-66
2022/07/25 00:54:30;;;;;;;13.70;2.60;;;39.30;35.30;;;;;;5008074;28;20129;-63
2022/07/25 00:56:57;;;;;;;18.55;3.38;;;39.30;35.60;;;;;;5014175;28;20126;-62
2022/07/25 00:59:23;;;;;;;13.65;3.38;;;39.40;35.50;;;;;;5015695;28;20107;-62
2022/07/25 01:01:50;;;;;;;18.10;3.28;;;39.30;35.60;;;;;;5014243;28;20446;-60
2022/07/25 01:04:17;;;;;;;15.80;3.15;;;39.10;35.60;;;;;;5001790;28;20097;-62
2022/07/25 01:06:43;;;;;;;16.60;2.75;;;39.20;35.80;;;;;;5014441;28;20070;-62
2022/07/25 01:09:10;;;;;;;16.10;3.20;;;39.20;36.00;;;;;;5010832;28;20109;-62
2022/07/25 01:11:37;;;;;;;15.85;3.25;;;39.20;35.80;;;;;;5017574;28;20131;-64
2022/07/25 01:14:04;;;;;;;16.25;3.45;;;39.20;35.80;;;;;;4994103;28;20089;-63
2022/07/25 01:16:30;;;;;;;18.65;3.70;;;39.20;36.00;;;;;;4994513;28;20081;-61
2022/07/25 01:18:57;;;;;;;15.65;3.25;;;39.10;36.70;;;;;;5012258;28;20486;-60
2022/07/25 01:21:25;;;;;;;18.02;3.35;;;39.00;37.40;;;;;;5014012;28;20082;-63
2022/07/25 01:23:51;;;;;;;18.08;3.50;;;38.90;38.00;;;;;;5006856;28;20092;-61
2022/07/25 01:26:18;;;;;;;20.25;3.45;;;38.70;38.90;;;;;;5013515;28;20618;-64
2022/07/25 01:28:44;;;;;;;21.00;3.83;;;38.60;39.40;;;;;;4994542;28;20507;-62
2022/07/25 01:31:11;;;;;;;37.05;4.28;;;38.50;40.10;;;;;;4999712;28;20073;-60
2022/07/25 01:33:37;;;;;;;39.67;4.32;;;38.50;40.60;;;;;;5008126;28;20446;-61
2022/07/25 01:36:04;;;;;;;15.15;3.55;;;38.40;41.20;;;;;;5014957;28;20081;-63
2022/07/25 01:38:30;;;;;;;19.10;3.83;;;38.20;41.50;;;;;;5012047;28;20114;-62
2022/07/25 01:40:56;;;;;;;20.70;3.92;;;38.10;41.40;;;;;;5013974;28;20101;-62
2022/07/25 01:43:23;;;;;;;29.65;4.15;;;38.00;41.70;;;;;;4978828;28;20070;-63
2022/07/25 01:45:49;;;;;;;30.05;4.07;;;38.00;41.40;;;;;;4996098;28;20098;-63
2022/07/25 01:48:16;;;;;;;20.50;3.47;;;37.90;41.10;;;;;;4996707;28;20070;-63
2022/07/25 01:50:42;;;;;;;20.27;3.92;;;37.90;41.20;;;;;;5018263;28;20078;-62
2022/07/25 01:53:08;;;;;;;25.05;5.10;;;37.70;40.70;;;;;;5010870;28;20078;-64
2022/07/25 01:55:35;;;;;;;30.48;4.15;;;37.70;40.90;;;;;;5000604;28;20172;-63
2022/07/25 01:58:01;;;;;;;25.08;3.75;;;37.60;40.80;;;;;;4987434;28;20079;-62
2022/07/25 02:00:28;;;;;;;14.60;3.35;;;37.70;40.90;;;;;;5017536;28;20197;-63
2022/07/25 02:03:36;;;;;;;23.30;3.85;;;37.50;40.60;;;;;;5009374;28;20079;-62
2022/07/25 02:05:43;;;;;;;30.27;4.80;;;37.40;40.40;;;;;;5013278;28;20118;-62
2022/07/25 02:08:10;;;;;;;33.30;4.53;;;37.30;40.30;;;;;;5014763;28;20590;-62
2022/07/25 02:10:36;;;;;;;45.58;5.45;;;37.30;41.30;;;;;;4993381;28;20086;-63
2022/07/25 02:13:03;;;;;;;24.98;4.43;;;37.20;41.50;;;;;;5012396;28;20098;-61
2022/07/25 02:15:29;;;;;;;31.33;4.43;;;37.20;41.10;;;;;;5012511;28;20109;-62
2022/07/25 02:17:55;;;;;;;22.52;3.60;;;37.10;41.30;;;;;;5001831;28;20074;-56
2022/07/25 02:20:22;;;;;;;32.47;4.47;;;37.00;41.20;;;;;;5013988;28;20078;-63
2022/07/25 02:22:48;;;;;;;30.33;3.92;;;36.90;41.00;;;;;;5018189;28;20086;-62
2022/07/25 02:25:15;;;;;;;24.08;3.88;;;36.90;41.00;;;;;;5012184;28;20089;-63
2022/07/25 02:27:42;;;;;;;23.50;3.97;;;36.90;41.00;;;;;;5012135;28;20110;-61
2022/07/25 02:30:08;;;;;;;23.95;4.28;;;36.70;41.60;;;;;;5015080;28;20090;-62
2022/07/25 02:32:35;;;;;;;40.85;4.70;;;36.60;42.80;;;;;;4997784;28;20695;-64
2022/07/25 02:35:01;;;;;;;41.95;5.50;;;36.60;44.00;;;;;;5018998;28;20076;-62
2022/07/25 02:37:27;;;;;;;37.15;5.63;;;36.50;45.60;;;;;;5013945;28;20070;-62
2022/07/25 02:39:54;;;;;;;34.28;4.95;;;36.30;47.20;;;;;;5017773;28;20117;-62
2022/07/25 02:42:20;;;;;;;45.50;5.80;;;36.20;47.90;;;;;;5014736;28;20078;-62
2022/07/25 02:44:46;;;;;;;51.38;5.45;;;36.10;49.10;;;;;;4983688;28;20182;-60
2022/07/25 02:47:13;;;;;;;64.20;7.03;;;36.00;50.30;;;;;;4995803;28;20074;-61
2022/07/25 02:49:39;;;;;;;39.30;5.57;;;35.90;50.80;;;;;;5000101;28;20086;-62
2022/07/25 02:52:06;;;;;;;50.13;6.05;;;35.80;51.20;;;;;;4992790;28;20074;-61
2022/07/25 02:54:32;;;;;;;44.78;5.80;;;35.70;51.20;;;;;;5015469;28;20082;-65
2022/07/25 02:56:58;;;;;;;32.03;4.68;;;35.60;51.50;;;;;;5012394;28;20454;-62
2022/07/25 02:59:25;;;;;;;42.90;5.00;;;35.60;52.10;;;;;;5003587;28;20104;-62
2022/07/25 03:01:51;;;;;;;40.22;5.80;;;35.40;52.00;;;;;;4998401;28;20082;-61
2022/07/25 03:04:17;;;;;;;52.35;5.22;;;35.40;51.70;;;;;;4990568;28;20094;-61
2022/07/25 03:06:44;;;;;;;36.80;5.22;;;35.40;50.90;;;;;;5011449;28;20161;-62
2022/07/25 03:09:10;;;;;;;31.75;5.20;;;35.30;50.60;;;;;;5000661;28;20125;-63
2022/07/25 03:11:36;;;;;;;32.38;5.70;;;35.20;50.40;;;;;;4999704;28;20078;-62
2022/07/25 03:14:03;;;;;;;29.77;4.82;;;35.20;50.20;;;;;;5016543;28;20161;-61
2022/07/25 03:16:29;;;;;;;42.35;4.82;;;35.10;50.00;;;;;;5000754;28;20074;-62
2022/07/25 03:18:56;;;;;;;31.05;5.28;;;35.10;50.10;;;;;;5003104;28;20100;-62
2022/07/25 03:21:22;;;;;;;42.95;5.10;;;35.00;49.90;;;;;;5021510;28;20078;-62
2022/07/25 03:23:49;;;;;;;45.55;5.70;;;35.00;50.40;;;;;;4980544;28;20163;-62
2022/07/25 03:26:15;;;;;;;34.75;5.35;;;34.90;50.20;;;;;;5010531;28;20568;-63
2022/07/25 03:28:42;;;;;;;48.08;5.53;;;34.80;50.60;;;;;;4995398;28;20179;-63
2022/07/25 03:31:08;;;;;;;33.42;5.18;;;34.80;51.10;;;;;;4995068;28;20069;-60
2022/07/25 03:33:34;;;;;;;36.05;5.35;;;34.80;51.30;;;;;;5015343;28;20074;-59
2022/07/25 03:36:01;;;;;;;28.65;5.10;;;34.70;51.60;;;;;;4996167;28;20436;-60
2022/07/25 03:38:28;;;;;;;30.50;5.13;;;34.70;51.90;;;;;;4996884;28;20208;-63
2022/07/25 03:40:55;;;;;;;39.42;5.30;;;34.60;52.30;;;;;;4994260;28;20073;-62
2022/07/25 03:43:21;;;;;;;48.60;5.45;;;34.60;52.60;;;;;;5009472;28;20077;-61
2022/07/25 03:45:47;;;;;;;36.33;5.40;;;34.50;52.90;;;;;;4994861;28;20552;-60
2022/07/25 03:48:14;;;;;;;59.97;5.95;;;34.50;53.30;;;;;;5001370;28;20111;-61
2022/07/25 03:50:40;;;;;;;48.80;5.82;;;34.40;53.70;;;;;;4993539;28;20095;-60
2022/07/25 03:53:06;;;;;;;43.10;5.40;;;34.40;54.00;;;;;;5010532;28;20323;-61
2022/07/25 03:55:33;;;;;;;56.00;6.82;;;34.40;54.40;;;;;;4995883;28;20544;-61
2022/07/25 03:57:59;;;;;;;33.90;6.03;;;34.30;54.80;;;;;;5010813;28;20539;-61
2022/07/25 04:00:25;;;;;;;30.23;5.75;;;34.20;55.20;;;;;;4993826;28;20102;-60
2022/07/25 04:02:52;;;;;;;29.70;6.00;;;34.10;55.90;;;;;;4993229;28;20071;-60
2022/07/25 04:05:18;;;;;;;26.88;5.38;;;34.10;56.20;;;;;;4993465;28;20106;-63
2022/07/25 04:07:44;;;;;;;34.17;5.78;;;34.00;56.90;;;;;;4999868;28;20141;-62
2022/07/25 04:10:11;;;;;;;40.00;7.10;;;34.00;57.50;;;;;;5007494;28;20668;-59
2022/07/25 04:12:37;;;;;;;32.35;6.75;;;33.90;58.10;;;;;;5002608;28;20162;-60
2022/07/25 04:15:04;;;;;;;49.67;8.63;;;33.80;58.90;;;;;;4995009;28;20078;-62
2022/07/25 04:17:31;;;;;;;41.03;9.05;;;33.80;59.30;;;;;;4995827;28;20091;-62
2022/07/25 04:19:57;;;;;;;49.35;13.00;;;33.70;59.80;;;;;;4995753;28;20440;-60
2022/07/25 04:22:24;;;;;;;52.45;12.60;;;33.60;60.30;;;;;;4994608;28;20074;-62
2022/07/25 04:24:50;;;;;;;46.47;10.75;;;33.60;60.90;;;;;;5012936;28;20189;-62
2022/07/25 04:27:16;;;;;;;45.10;7.63;;;33.60;61.00;;;;;;4994963;28;20635;-61
2022/07/25 04:29:43;;;;;;;47.15;7.35;;;33.40;61.40;;;;;;4993479;28;20079;-61
2022/07/25 04:32:09;;;;;;;36.33;7.15;;;33.40;61.30;;;;;;4994973;28;20090;-62
2022/07/25 04:34:36;;;;;;;34.28;5.95;;;33.40;61.40;;;;;;5012382;28;20082;-61
2022/07/25 04:37:02;;;;;;;47.15;6.38;;;33.40;61.30;;;;;;4994379;28;20511;-63
2022/07/25 04:39:28;;;;;;;34.30;5.90;;;33.30;61.80;;;;;;4991038;28;20074;-61
2022/07/25 04:41:55;;;;;;;30.27;5.47;;;33.30;62.70;;;;;;4993141;28;20074;-64
2022/07/25 04:44:21;;;;;;;32.38;5.55;;;33.30;63.20;;;;;;5010193;28;20094;-62
2022/07/25 04:46:48;;;;;;;24.90;5.20;;;33.30;63.80;;;;;;4994158;28;20145;-62
2022/07/25 04:49:14;;;;;;;37.20;5.60;;;33.20;64.40;;;;;;4997755;28;20071;-62
2022/07/25 04:51:41;;;;;;;33.80;5.57;;;33.10;64.90;;;;;;4994989;28;20524;-61
2022/07/25 04:54:08;;;;;;;35.95;6.60;;;33.20;65.50;;;;;;4996352;28;20436;-62
2022/07/25 04:56:34;;;;;;;30.92;6.03;;;33.10;66.60;;;;;;4995533;28;20587;-61
2022/07/25 04:59:01;;;;;;;36.60;5.68;;;33.10;67.10;;;;;;4993520;28;20444;-62
2022/07/25 05:01:27;;;;;;;28.42;5.90;;;33.10;67.50;;;;;;4993589;28;20145;-63
2022/07/25 05:03:53;;;;;;;31.42;5.78;;;33.00;68.30;;;;;;5002425;28;20395;-62
2022/07/25 05:06:20;;;;;;;39.40;6.07;;;32.90;69.20;;;;;;5008156;28;20086;-62
2022/07/25 05:08:46;;;;;;;36.33;5.70;;;32.90;70.70;;;;;;4981682;28;20170;-61
2022/07/25 05:11:13;;;;;;;37.20;6.65;;;32.90;71.50;;;;;;4993028;28;20067;-63
2022/07/25 05:13:39;;;;;;;40.67;6.55;;;32.70;73.10;;;;;;5004801;28;20075;-64
2022/07/25 05:16:06;;;;;;;33.72;5.47;;;32.70;74.70;;;;;;4992035;28;20521;-61
2022/07/25 05:18:33;;;;;;;39.97;7.60;;;32.60;76.00;;;;;;4994479;28;20079;-60
2022/07/25 05:21:00;;;;;;;33.95;6.05;;;32.60;76.90;;;;;;5006614;28;20212;-63
2022/07/25 05:23:26;;;;;;;31.02;5.95;;;32.60;77.80;;;;;;4994145;28;20086;-63
2022/07/25 05:25:53;;;;;;;25.52;5.80;;;32.50;79.80;;;;;;5005647;28;20504;-62
2022/07/25 05:28:19;;;;;;;37.83;6.57;;;32.40;81.50;;;;;;5009909;28;20078;-63
2022/07/25 05:30:45;;;;;;;40.53;5.55;;;32.40;84.40;;;;;;5018152;28;20166;-63
2022/07/25 05:33:12;;;;;;;35.92;7.18;;;32.40;86.10;;;;;;4996043;28;20182;-61
2022/07/25 05:35:38;;;;;;;44.95;6.63;;;32.30;87.90;;;;;;4992111;28;20173;-61
2022/07/25 05:38:05;;;;;;;37.08;7.22;;;32.20;89.50;;;;;;4991288;28;20544;-61
2022/07/25 05:40:31;;;;;;;52.10;7.43;;;32.20;90.80;;;;;;4989749;28;20093;-61
2022/07/25 05:42:58;;;;;;;43.38;7.70;;;32.10;91.60;;;;;;4993906;28;20103;-61
2022/07/25 05:45:24;;;;;;;47.75;7.65;;;32.10;92.20;;;;;;4992946;28;20098;-62
2022/07/25 05:47:50;;;;;;;45.47;7.85;;;32.00;92.90;;;;;;4992657;28;20557;-63
2022/07/25 05:50:17;;;;;;;45.75;7.65;;;32.00;93.40;;;;;;4997568;28;20078;-62
2022/07/25 05:52:43;;;;;;;47.97;7.63;;;31.90;93.80;;;;;;5011856;28;20071;-65
2022/07/25 05:55:09;;;;;;;49.70;7.75;;;31.90;94.20;;;;;;5006760;28;20136;-62
2022/07/25 05:57:36;;;;;;;51.40;7.90;;;31.90;94.40;;;;;;5013324;28;20069;-62
2022/07/25 06:00:05;;;;;;;66.03;8.40;;;31.90;94.70;;;;;;4990693;28;20197;-61
2022/07/25 06:02:31;;;;;;;34.75;7.43;;;31.90;95.00;;;;;;4994206;28;20087;-61
2022/07/25 06:04:58;;;;;;;38.50;7.65;;;31.90;95.20;;;;;;5011801;28;20177;-61
2022/07/25 06:07:25;;;;;;;37.60;7.25;;;31.80;95.40;;;;;;5014534;28;20078;-64
2022/07/25 06:09:52;;;;;;;43.65;7.50;;;31.70;95.80;;;;;;5011316;28;20082;-61
2022/07/25 06:12:18;;;;;;;35.30;6.57;;;31.70;96.20;;;;;;4995909;28;20458;-61
2022/07/25 06:14:44;;;;;;;39.55;6.78;;;31.70;96.40;;;;;;4997175;28;20081;-62
2022/07/25 06:17:11;;;;;;;34.10;6.90;;;31.70;96.70;;;;;;5012845;28;20145;-60
2022/07/25 06:19:37;;;;;;;35.58;7.18;;;31.60;97.10;;;;;;4996910;28;20078;-62
2022/07/25 06:22:03;;;;;;;38.25;8.48;;;31.60;97.50;;;;;;4999394;28;20075;-60
2022/07/25 06:24:30;;;;;;;50.10;7.00;;;31.50;97.80;;;;;;4995853;28;20090;-61
2022/07/25 06:26:56;;;;;;;43.38;7.38;;;31.50;98.50;;;;;;4995720;28;20470;-61
2022/07/25 06:29:24;;;;;;;42.80;7.07;;;31.50;98.90;;;;;;5008854;28;20151;-62
2022/07/25 06:31:51;;;;;;;42.42;6.75;;;31.50;99.30;;;;;;4996608;28;20066;-62
2022/07/25 06:34:17;;;;;;;35.78;7.72;;;31.50;99.80;;;;;;5014129;28;20089;-61
2022/07/25 06:36:43;;;;;;;49.92;8.55;;;31.40;99.90;;;;;;5002747;28;20949;-61
2022/07/25 06:39:10;;;;;;;46.80;9.98;;;31.30;99.90;;;;;;5014420;28;20082;-61
2022/07/25 06:41:36;;;;;;;54.22;10.23;;;31.40;99.90;;;;;;4997233;28;20157;-61
2022/07/25 06:44:03;;;;;;;48.00;9.82;;;31.40;99.90;;;;;;4996648;28;20084;-62
2022/07/25 06:46:31;;;;;;;45.47;8.95;;;31.30;99.90;;;;;;5016607;28;20071;-60
2022/07/25 06:48:58;;;;;;;44.03;9.05;;;31.30;99.90;;;;;;5014874;28;20106;-60
2022/07/25 06:51:24;;;;;;;56.50;9.35;;;31.40;99.90;;;;;;4996153;28;20451;-60
2022/07/25 06:53:51;;;;;;;47.80;9.80;;;31.30;99.90;;;;;;5005097;28;20486;-63
2022/07/25 06:56:18;;;;;;;41.90;8.88;;;31.30;99.90;;;;;;5005971;28;20105;-62
2022/07/25 06:58:44;;;;;;;45.10;8.93;;;31.30;99.90;;;;;;4994611;28;20081;-60
2022/07/25 07:01:11;;;;;;;49.45;9.48;;;31.20;99.90;;;;;;5009771;28;20074;-61
2022/07/25 07:03:38;;;;;;;36.17;7.55;;;31.20;99.90;;;;;;5008078;28;20113;-60
2022/07/25 07:06:06;;;;;;;39.38;7.13;;;31.20;99.90;;;;;;5014011;28;20098;-63
2022/07/25 07:08:33;;;;;;;36.33;7.20;;;31.20;99.90;;;;;;5013329;28;20540;-59
2022/07/25 07:11:00;;;;;;;36.92;7.35;;;31.20;99.90;;;;;;4994765;28;20073;-61
2022/07/25 07:13:26;;;;;;;37.95;6.47;;;31.20;99.90;;;;;;5009244;28;20065;-60
2022/07/25 07:15:53;;;;;;;38.83;6.97;;;31.20;99.90;;;;;;4995637;28;20153;-60
2022/07/25 07:18:20;;;;;;;30.30;6.65;;;31.20;99.90;;;;;;4995576;28;20108;-61
2022/07/25 07:20:47;;;;;;;34.30;8.77;;;31.20;99.90;;;;;;5010404;28;20080;-60
2022/07/25 07:23:14;;;;;;;35.88;8.48;;;31.20;99.90;;;;;;4997793;28;20133;-59
2022/07/25 07:25:41;;;;;;;42.72;9.50;;;31.10;99.90;;;;;;4996752;28;20125;-60
2022/07/25 07:28:07;;;;;;;43.28;9.98;;;31.10;99.90;;;;;;5016264;28;20082;-61
2022/07/25 07:30:34;;;;;;;38.50;9.43;;;31.20;99.90;;;;;;5018233;28;20108;-60
2022/07/25 07:33:01;;;;;;;38.42;8.68;;;31.10;99.90;;;;;;4997724;28;20070;-59
2022/07/25 07:35:27;;;;;;;41.42;8.07;;;31.10;99.90;;;;;;4997331;28;20110;-59
2022/07/25 07:37:54;;;;;;;35.53;7.45;;;31.20;99.90;;;;;;5015907;28;20570;-60
2022/07/25 07:40:22;;;;;;;31.40;6.25;;;31.20;99.90;;;;;;4985903;28;20829;-62
2022/07/25 07:42:49;;;;;;;32.33;5.82;;;31.20;99.90;;;;;;5002029;28;20089;-60
2022/07/25 07:45:22;;;;;;;27.25;6.03;;;31.20;99.90;;;;;;5024309;28;20454;-58
2022/07/25 07:47:50;;;;;;;31.10;5.60;;;31.10;99.90;;;;;;5016231;28;20094;-60
2022/07/25 07:50:19;;;;;;;33.35;6.68;;;31.20;99.90;;;;;;4989538;28;20093;-60
2022/07/25 07:52:47;;;;;;;30.77;6.32;;;31.20;99.90;;;;;;5014138;28;20082;-59
2022/07/25 07:57:59;;;;;;;37.70;7.28;;;31.00;99.90;;;;;;5016661;28;20119;-61
2022/07/25 08:00:27;;;;;;;31.80;6.65;;;31.00;99.90;;;;;;5007397;28;20073;-60
2022/07/25 08:02:54;;;;;;;30.02;6.72;;;31.00;99.90;;;;;;4997414;28;20089;-60
2022/07/25 08:05:28;;;;;;;34.22;7.40;;;31.10;99.90;;;;;;5015583;28;20082;-61
2022/07/25 08:07:55;;;;;;;32.60;6.78;;;31.10;99.90;;;;;;5000368;28;20085;-61
2022/07/25 08:10:24;;;;;;;32.30;7.38;;;31.10;99.90;;;;;;5012851;28;20131;-62
2022/07/25 08:12:50;;;;;;;37.63;7.70;;;31.10;99.70;;;;;;5012956;28;20104;-60
2022/07/25 08:15:18;;;;;;;32.03;6.00;;;31.10;99.10;;;;;;5014326;28;20407;-61
2022/07/25 08:17:46;;;;;;;37.40;7.13;;;31.10;98.50;;;;;;4996417;28;20427;-61
2022/07/25 08:20:13;;;;;;;29.92;6.10;;;31.10;98.60;;;;;;5013472;28;20094;-60
2022/07/25 08:22:42;;;;;;;34.05;6.40;;;31.10;98.10;;;;;;5013130;28;20077;-59
2022/07/25 08:25:12;;;;;;;35.00;6.22;;;31.10;98.00;;;;;;4980572;28;20094;-61
2022/07/25 08:27:39;;;;;;;32.15;6.00;;;31.20;97.90;;;;;;4976270;28;20624;-59
2022/07/25 08:30:07;;;;;;;26.25;5.65;;;31.20;97.80;;;;;;5000609;28;20070;-60
2022/07/25 08:32:33;;;;;;;30.77;6.05;;;31.20;97.60;;;;;;5014061;28;20082;-60
2022/07/25 08:35:03;;;;;;;25.45;5.63;;;31.20;97.50;;;;;;5021957;28;20419;-59
2022/07/25 08:37:29;;;;;;;30.67;5.72;;;31.20;97.50;;;;;;5001233;28;20535;-61
2022/07/25 08:39:56;;;;;;;23.27;5.45;;;31.20;97.50;;;;;;5010111;28;20082;-61
2022/07/25 08:42:22;;;;;;;21.85;5.25;;;31.20;97.60;;;;;;5013410;28;20075;-60
2022/07/25 08:45:01;;;;;;;24.65;5.25;;;31.20;97.70;;;;;;5011850;28;20140;-61
2022/07/25 08:47:28;;;;;;;27.02;4.93;;;31.10;97.80;;;;;;4970927;28;20531;-61
2022/07/25 08:49:55;;;;;;;27.80;5.60;;;31.20;97.90;;;;;;4998822;28;20101;-61
2022/07/25 08:52:22;;;;;;;35.40;5.68;;;31.10;98.30;;;;;;5009968;28;20098;-60
2022/07/25 08:54:50;;;;;;;26.20;5.18;;;31.10;98.40;;;;;;4998925;28;20077;-60
2022/07/25 08:57:17;;;;;;;22.98;5.75;;;31.00;98.90;;;;;;5013912;28;20086;-60
2022/07/25 08:59:43;;;;;;;34.05;5.40;;;31.00;98.80;;;;;;5017265;28;20169;-60
2022/07/25 09:02:16;;;;;;;27.75;5.35;;;31.00;99.00;;;;;;4985714;28;20578;-60
2022/07/25 09:04:42;;;;;;;31.55;6.03;;;31.10;99.00;;;;;;4996362;28;20102;-60
2022/07/25 09:07:09;;;;;;;23.65;5.57;;;31.10;99.20;;;;;;5015128;28;20511;-61
2022/07/25 09:09:37;;;;;;;29.10;5.40;;;31.10;99.30;;;;;;5004318;28;20078;-60
2022/07/25 09:12:06;;;;;;;29.02;5.72;;;31.00;99.40;;;;;;5015367;28;20188;-60
2022/07/25 09:14:42;;;;;;;18.73;4.22;;;30.90;99.50;;;;;;4998469;28;20155;-61
2022/07/25 09:17:09;;;;;;;25.88;4.93;;;31.00;99.60;;;;;;5006772;28;20101;-61
2022/07/25 09:19:36;;;;;;;25.83;4.82;;;31.00;99.60;;;;;;4996830;28;20185;-61
2022/07/25 09:22:07;;;;;;;23.15;4.90;;;31.00;99.80;;;;;;5013828;28;20500;-61
2022/07/25 09:24:34;;;;;;;19.95;4.47;;;31.00;99.80;;;;;;4997081;28;20102;-61
2022/07/25 09:27:08;;;;;;;23.85;4.57;;;30.90;99.90;;;;;;5011888;28;20113;-59
2022/07/25 09:29:35;;;;;;;25.00;5.00;;;31.00;99.90;;;;;;4996661;28;20078;-60
2022/07/25 09:32:12;;;;;;;22.95;4.55;;;30.90;99.90;;;;;;5013245;28;20066;-60
2022/07/25 09:34:41;;;;;;;20.75;4.57;;;30.90;99.90;;;;;;5012686;28;20088;-60
2022/07/25 09:37:12;;;;;;;21.95;4.25;;;31.00;99.90;;;;;;4998920;28;20165;-60
2022/07/25 09:39:45;;;;;;;28.70;4.57;;;31.00;99.90;;;;;;5013358;28;20156;-60
2022/07/25 09:42:22;;;;;;;20.20;4.07;;;30.90;99.90;;;;;;5018576;28;20448;-61
2022/07/25 09:45:11;;;;;;;29.48;5.20;;;31.00;99.90;;;;;;5017423;28;20086;-60
2022/07/25 09:47:55;;;;;;;20.25;4.07;;;31.00;99.90;;;;;;5014251;28;20073;-59
2022/07/25 09:50:23;;;;;;;21.55;3.60;;;31.00;99.90;;;;;;4983923;28;20074;-60
2022/07/25 09:52:51;;;;;;;22.67;4.82;;;30.90;99.90;;;;;;4998892;28;20157;-60
2022/07/25 09:55:19;;;;;;;23.02;4.60;;;31.00;99.90;;;;;;5021642;28;20186;-60
2022/07/25 09:57:47;;;;;;;24.95;4.03;;;30.90;99.90;;;;;;5020339;28;20086;-60
2022/07/25 10:00:18;;;;;;;22.80;4.75;;;30.90;99.90;;;;;;4998667;28;20075;-59
2022/07/25 10:02:54;;;;;;;21.17;3.95;;;30.90;99.90;;;;;;4988318;28;20524;-60
2022/07/25 10:05:30;;;;;;;24.02;4.45;;;30.90;99.90;;;;;;5017354;28;20498;-60
2022/07/25 10:07:57;;;;;;;17.83;3.90;;;30.90;99.90;;;;;;5017770;28;20070;-61
2022/07/25 10:10:38;;;;;;;23.90;4.20;;;30.90;99.90;;;;;;5015681;28;20106;-61
2022/07/25 10:13:10;;;;;;;24.05;4.65;;;31.00;99.90;;;;;;5001752;28;20069;-61
2022/07/25 10:15:48;;;;;;;18.90;4.13;;;30.90;99.90;;;;;;5017756;28;20551;-61
2022/07/25 10:18:18;;;;;;;23.92;5.32;;;30.80;99.90;;;;;;5017799;28;20116;-61
2022/07/25 10:20:46;;;;;;;21.08;4.63;;;30.80;99.90;;;;;;5019207;28;20074;-61
2022/07/25 10:23:27;;;;;;;18.10;4.65;;;30.80;99.90;;;;;;5007814;28;20097;-61
2022/07/25 10:26:24;;;;;;;27.38;5.40;;;30.80;99.90;;;;;;5016779;28;20171;-61
2022/07/25 10:28:53;;;;;;;18.35;4.22;;;30.70;99.90;;;;;;4998588;28;20161;-62
2022/07/25 10:31:32;;;;;;;19.77;4.40;;;30.80;99.90;;;;;;4999724;28;20755;-60
2022/07/25 10:34:04;;;;;;;22.95;4.15;;;30.80;99.90;;;;;;5000287;28;20078;-61
2022/07/25 10:37:11;;;;;;;17.65;3.97;;;30.80;99.90;;;;;;4986725;28;20077;-61
2022/07/25 10:39:40;;;;;;;19.77;4.25;;;30.80;99.90;;;;;;4992076;28;20185;-61
2022/07/25 10:42:11;;;;;;;18.75;4.30;;;30.80;99.90;;;;;;4965978;28;20078;-61
2022/07/25 10:44:47;;;;;;;15.30;3.95;;;30.80;99.90;;;;;;5002124;28;20090;-61
2022/07/25 10:47:16;;;;;;;17.65;4.07;;;30.70;99.90;;;;;;5013387;28;20066;-61
2022/07/25 10:49:48;;;;;;;19.25;4.53;;;30.70;99.90;;;;;;4999553;28;20086;-60
2022/07/25 10:52:17;;;;;;;16.77;4.05;;;30.80;99.90;;;;;;5014926;28;20077;-61
2022/07/25 10:55:00;;;;;;;15.15;4.13;;;30.80;99.90;;;;;;5015556;28;20144;-61
2022/07/25 10:57:28;;;;;;;13.00;3.13;;;30.90;99.90;;;;;;5016993;28;20529;-59
2022/07/25 11:00:03;;;;;;;18.80;3.88;;;30.80;99.90;;;;;;5011055;28;20428;-61
2022/07/25 11:02:30;;;;;;;15.10;3.40;;;30.80;99.90;;;;;;5016886;28;20082;-62
2022/07/25 11:05:02;;;;;;;16.95;3.85;;;30.80;99.90;;;;;;5005260;28;20491;-61
2022/07/25 11:07:34;;;;;;;14.40;4.00;;;30.90;99.90;;;;;;5023017;28;20778;-61
2022/07/25 11:10:04;;;;;;;14.30;3.42;;;30.80;99.90;;;;;;5022038;28;20109;-61
2022/07/25 11:12:31;;;;;;;11.35;3.13;;;30.70;99.90;;;;;;4998783;28;20072;-61
2022/07/25 11:15:06;;;;;;;18.00;3.50;;;30.70;99.90;;;;;;4999100;28;20106;-61
2022/07/25 11:17:33;;;;;;;14.43;3.20;;;30.70;99.90;;;;;;5000865;28;20159;-60
2022/07/25 11:20:00;;;;;;;15.57;3.70;;;30.80;99.90;;;;;;4997045;28;20074;-60
2022/07/25 11:22:28;;;;;;;13.32;3.10;;;30.80;99.90;;;;;;5016324;28;20081;-60
2022/07/25 11:24:56;;;;;;;17.70;3.45;;;30.80;99.90;;;;;;5016491;28;20121;-60
2022/07/25 11:27:31;;;;;;;16.48;3.70;;;30.80;99.90;;;;;;5000336;28;20102;-60
2022/07/25 11:30:14;;;;;;;18.92;3.97;;;30.80;99.90;;;;;;4998125;28;20066;-59
2022/07/25 11:32:48;;;;;;;16.00;3.38;;;30.70;99.90;;;;;;4986567;28;20082;-61
2022/07/25 11:35:15;;;;;;;13.93;3.28;;;30.80;99.90;;;;;;5015279;28;20075;-63
2022/07/25 11:37:47;;;;;;;13.38;3.28;;;30.80;99.90;;;;;;5000067;28;20100;-62
2022/07/25 11:40:17;;;;;;;17.27;3.78;;;30.80;99.90;;;;;;5001879;28;20089;-61
2022/07/25 11:42:49;;;;;;;10.60;2.90;;;30.80;99.90;;;;;;5015814;28;20079;-62
2022/07/25 11:45:24;;;;;;;15.00;3.13;;;30.70;99.90;;;;;;4998210;28;20094;-60
2022/07/25 11:48:12;;;;;;;18.40;3.33;;;30.80;99.90;;;;;;5017163;28;20098;-61
2022/07/25 11:50:42;;;;;;;15.70;3.13;;;30.70;99.90;;;;;;5026564;28;20070;-61
2022/07/25 11:53:13;;;;;;;15.60;3.47;;;30.80;99.90;;;;;;5013709;28;20093;-61
2022/07/25 11:55:41;;;;;;;14.70;3.47;;;30.70;99.90;;;;;;4996225;28;20528;-61
2022/07/25 11:58:09;;;;;;;18.80;3.72;;;30.70;99.90;;;;;;4979701;28;20098;-61
2022/07/25 12:00:48;;;;;;;14.98;3.55;;;30.70;99.90;;;;;;4998275;28;20070;-61
2022/07/25 12:03:16;;;;;;;17.73;4.03;;;30.70;99.90;;;;;;4998413;28;20112;-61
2022/07/25 12:05:43;;;;;;;10.57;3.03;;;30.60;99.90;;;;;;5016012;28;20120;-62
2022/07/25 12:08:11;;;;;;;13.07;2.88;;;30.60;99.90;;;;;;5014007;28;20439;-61
2022/07/25 12:10:39;;;;;;;13.13;3.40;;;30.60;99.90;;;;;;5012738;28;20074;-61
2022/07/25 12:13:08;;;;;;;9.15;2.88;;;30.70;99.90;;;;;;5012474;28;20074;-62
2022/07/25 12:15:39;;;;;;;11.25;3.30;;;30.60;99.90;;;;;;5013163;28;20105;-60
2022/07/25 12:18:11;;;;;;;10.18;3.20;;;30.70;99.90;;;;;;4996641;28;20829;-61
2022/07/25 12:20:39;;;;;;;12.85;2.97;;;30.70;99.90;;;;;;4993671;28;20085;-61
2022/07/25 12:23:09;;;;;;;14.90;3.13;;;30.60;99.90;;;;;;4999961;28;20078;-60
2022/07/25 12:25:37;;;;;;;15.30;3.10;;;30.60;99.90;;;;;;4996488;28;20113;-61
2022/07/25 12:28:05;;;;;;;8.45;2.30;;;30.60;99.90;;;;;;4996379;28;20439;-61
2022/07/25 12:30:32;;;;;;;9.85;2.50;;;30.60;99.90;;;;;;5015522;28;20621;-60
2022/07/25 12:33:00;;;;;;;13.32;2.70;;;30.60;99.90;;;;;;5014608;28;20553;-62
2022/07/25 12:35:27;;;;;;;10.25;2.53;;;30.50;99.90;;;;;;4996923;28;20074;-61
2022/07/25 12:37:54;;;;;;;11.25;3.35;;;30.60;99.90;;;;;;5016458;28;20945;-61
2022/07/25 12:40:20;;;;;;;12.98;3.10;;;30.60;99.90;;;;;;5000816;28;20090;-62
2022/07/25 12:42:48;;;;;;;13.98;2.65;;;30.60;99.90;;;;;;5009800;28;20078;-60